Flight Track Log - Related Links

Times and Time Zones

All times are in EDT time to prevent confusion due to time zone crossing. See the KAP5 flight status page for this flight to view local times or setup timezone preferences in your user account.

Time Position Orientation Groundspeed Altitude Reporting Facility
EDT Latitude Longitude Course Direction KTS MPH feet Rate Location/Type
02:18PM 42.3667 -71.0167 216° Southwest 90 104 600  Level KA90
02:19PM 42.3500 -71.0333 216° Southwest 90 104 1,300 889 Climbing KA90
02:20PM 42.3333 -71.0667 236° Southwest 91 105 2,200 857 Climbing KA90
02:21PM 42.3000 -71.0833 200° South 86 99 3,100 842 Climbing KA90
02:21PM 42.2833 -71.0833 180° South 88 101 3,800 895 Climbing KA90
02:23PM 42.2667 -71.0500 124° Southeast 122 140 4,800 524 Climbing KA90
02:24PM 42.2500 -71.0000 114° Southeast 144 166 4,900 48 Climbing KA90
02:25PM 42.2167 -70.9500 132° Southeast 152 175 4,900  Level KA90
02:26PM 42.2000 -70.9000 114° Southeast 162 186 4,900  Level KA90
02:27PM 42.1833 -70.8500 114° Southeast 188 216 4,900  Level KA90
02:28PM 42.1667 -70.7667 105° East 181 208 4,900  Level KA90
02:28PM 42.1500 -70.7167 114° Southeast 184 212 4,900  Level KA90
02:30PM 42.1333 -70.6333 105° East 181 208 4,900  Level KA90
02:32PM 42.1334 -70.5460 90° East  Level FlightAware Approximate
02:39PM 41.9090 -70.4208 114° Southeast  Level Estimated
02:40PM 41.9212 -70.3772 69° East  Level FlightAware Approximate
02:41PM 41.9334 -70.3335 69° East  Level FlightAware Approximate
02:42PM 41.9456 -70.2898 69° East  Level FlightAware Approximate
02:43PM 41.9578 -70.2461 69° East  Level FlightAware Approximate
02:44PM 41.9237 -70.2371 180° South  Level Estimated
02:45PM 41.8923 -70.2172 155° Southeast  Level FlightAware Approximate
02:46PM 41.8609 -70.1973 155° Southeast  Level FlightAware Approximate
02:47PM 41.8295 -70.1775 155° Southeast  Level FlightAware Approximate
02:48PM 41.7981 -70.1577 155° Southeast  Level FlightAware Approximate
02:49PM 41.7667 -70.1379 155° Southeast  Level FlightAware Approximate
02:50PM 41.7353 -70.1182 155° Southeast  Level FlightAware Approximate
02:51PM 41.7039 -70.0984 155° Southeast  Level FlightAware Approximate
02:52PM 41.6725 -70.0787 155° Southeast  Level FlightAware Approximate
02:53PM 41.6410 -70.0590 155° Southeast  Level FlightAware Approximate
02:54PM 41.6096 -70.0394 155° Southeast  Level FlightAware Approximate
02:55PM 41.5782 -70.0197 155° Southeast  Level FlightAware Approximate
02:56PM 41.5707 -70.0392 189° South  Level FlightAware Approximate
02:57PM 41.5363 -70.0461 189° South  Level FlightAware Approximate
02:58PM 41.5019 -70.0500 180° South  Level FlightAware Approximate
02:59PM 41.4672 -70.0500 180° South  Level FlightAware Approximate
03:00PM 41.4325 -70.0500 180° South  Level FlightAware Approximate
03:01PM 41.3978 -70.0500 180° South  Level FlightAware Approximate
03:02PM 41.3631 -70.0500 180° South  Level FlightAware Approximate
03:03PM 41.3284 -70.0500 180° South  Level FlightAware Approximate
03:04PM 41.2937 -70.0500 180° South  Level FlightAware Approximate
03:05PM 41.2590 -70.0500 180° South  Level FlightAware Approximate
03:06PM 41.2500 -70.0500 180° South  Level FlightAware Approximate
03:07PM 41.2531 -70.0603 180° South  Level Estimated
03:08PM 41.2531 -70.0603 180° South  Level Estimated
03:09PM 41.2531 -70.0603 180° South  Level Estimated
03:10PM 41.2531 -70.0603 180° South  Level Estimated
03:11PM 41.2531 -70.0603 180° South  Level Estimated
03:12PM 41.2531 -70.0603 180° South  Level Estimated
03:13PM 41.2531 -70.0603 180° South  Level Estimated
03:14PM 41.2531 -70.0603 180° South  Level Estimated

Login

Don't have an account? Register now (free) for customized features, flight alerts, and more!